Buoy 46770

sailwx.info

Track history (hours):
 
Tides and Currents Weather Stations Pressure Air Temp Water Temp Dewpoint Dewpoint Depression Visibility Wind Speed Wind Dir Waves Ship Positions

Drifting buoy 46770

Last reported at 2017-Mar-30 05:00 UTC. Time now 2017-Mar-30 06:50 UTC.
Position N 39°50' W 129°50'.

Barometer 1027.3 mb
Water temperature 11.7 ° C

Date/timePositionNaut miles runAvg speedWind from/ knotsBaromVisibWave heightAir tempDewpointWater temp
2017-Mar-30 05:00N 39°50' W 129°50'0 0.0 1027.3 11.7
2017-Mar-30 04:00N 39°50' W 129°50'0 0.0 1026.5 11.7
2017-Mar-30 03:00N 39°50' W 129°50'1 1.2 1025.6 11.8
2017-Mar-30 02:00N 39°52' W 129°50'1 1.2 1025.0 11.7
2017-Mar-30 01:00N 39°53' W 129°50'0 0.0 1024.6 11.8
2017-Mar-30 00:00N 39°53' W 129°50'1 0.6 1024.3 11.8
2017-Mar-29 23:00N 39°53' W 129°50'0 0.0 1024.4 11.8
2017-Mar-29 22:00N 39°53' W 129°50'2 2.4 1023.8 11.8
2017-Mar-29 21:00N 39°56' W 129°50'1 0.3 1024.0 11.8
2017-Mar-29 19:00N 39°55' W 129°50'1 1.1 1024.0 11.8
2017-Mar-29 18:00N 39°56' W 129°51'2 1.5 1023.7 11.8
2017-Mar-29 17:00N 39°57' W 129°52'0 0.0 1023.0 11.8
2017-Mar-29 16:00N 39°57' W 129°52'0 0.5 1023.0 11.8
2017-Mar-29 15:00N 39°57' W 129°53'1 0.9 1023.0 11.8
2017-Mar-29 14:00N 39°57' W 129°54'0 0.0 1022.6 11.8
2017-Mar-29 13:00N 39°57' W 129°54'1 0.8 1022.3 11.8
2017-Mar-29 12:00N 39°56' W 129°55'0 0.0 1022.5 11.8
2017-Mar-29 11:00N 39°56' W 129°55'0 0.0 1023.1 11.8
2017-Mar-29 10:00N 39°56' W 129°55'1 0.4 1023.4 11.8
2017-Mar-29 07:00N 39°56' W 129°56'1 0.8 1024.9 11.8
2017-Mar-29 06:00N 39°56' W 129°56'1 0.8 1025.2 11.8
2017-Mar-29 05:00N 39°56' W 129°57'0 0.0 1025.5 11.8
2017-Mar-29 04:00N 39°56' W 129°57'0 0.5 1025.5 11.8
2017-Mar-29 03:00N 39°56' W 129°58'1 0.9 1025.3 11.8
2017-Mar-29 02:00N 39°56' W 129°59'0 0.0 1025.4 11.8
2017-Mar-29 01:00N 39°56' W 129°59'0 0.0 1025.6 11.8
2017-Mar-29 00:00N 39°56' W 129°59'1 0.6 1025.9 11.8
2017-Mar-28 23:00N 39°55' W 129°59'0 0.0 1026.6 11.8
2017-Mar-28 22:00N 39°55' W 129°59'0 0.0 1027.2 11.8
2017-Mar-28 21:00N 39°55' W 129°59'0 0.0 1027.8 11.7
2017-Mar-28 19:00N 39°55' W 129°59'0 0.0 1028.4 11.6
2017-Mar-28 18:00N 39°55' W 129°59'0 0.5 1028.4 11.6
2017-Mar-28 17:00N 39°55' W 129°59'0 0.0 1028.5 11.5
2017-Mar-28 16:00N 39°55' W 129°59'0 0.5 1028.4 11.4
2017-Mar-28 15:00N 39°55' W 130°00'1 0.6 1028.2 11.4
2017-Mar-28 14:00N 39°56' W 130°00'1 0.6 1028.0 11.5
2017-Mar-28 13:00N 39°55' W 130°00'1 1.4 1028.4 11.5
2017-Mar-28 12:00N 39°55' W 130°02'0 0.0 1028.9 11.5
2017-Mar-28 11:00N 39°55' W 130°02'0 0.0 1029.5 11.5
2017-Mar-28 10:00N 39°55' W 130°02'1 0.3 1029.7 11.5
2017-Mar-28 06:00N 39°54' W 130°02'1 0.8 1030.7 11.5
2017-Mar-28 05:00N 39°53' W 130°02'0 0.0 1030.5 11.5
2017-Mar-28 04:00N 39°53' W 130°02'1 0.6 1030.0 11.5
2017-Mar-28 03:00N 39°54' W 130°02'1 0.6 1030.1 11.6
2017-Mar-28 02:00N 39°55' W 130°02'1 0.6 1030.3 11.6
2017-Mar-28 01:00N 39°55' W 130°02'0 0.0 1030.3 11.6
2017-Mar-28 00:00N 39°55' W 130°02'1 0.8 1030.1 11.6
2017-Mar-27 23:00N 39°56' W 130°02'0 0.0 1030.2 11.7
2017-Mar-27 22:00N 39°56' W 130°02'1 1.3 1030.0 11.6
2017-Mar-27 21:00N 39°57' W 130°03'0 0.0 1030.0 11.6
2017-Mar-27 20:00N 39°57' W 130°03'0 0.5 1029.6 11.6
2017-Mar-27 19:00N 39°57' W 130°02'1 0.8 1029.2 11.6
2017-Mar-27 18:00N 39°58' W 130°03'1 0.6 1028.2 11.6
2017-Mar-27 17:00N 39°58' W 130°03'1 0.8 1028.1 11.6
2017-Mar-27 16:00N 39°59' W 130°04'1 0.8 1027.5 11.5
2017-Mar-27 15:00N 39°59' W 130°04'1 1.1 1026.1 11.5
2017-Mar-27 14:00N 40°00' W 130°05'1 0.8 1025.3 11.6
2017-Mar-27 13:00N 40°01' W 130°06'2 1.8 1025.0 11.6
2017-Mar-27 12:00N 40°02' W 130°08'0 0.0 1024.5 11.6
2017-Mar-27 11:00N 40°02' W 130°08'0 0.0 1024.2 11.7
2017-Mar-27 10:00N 40°02' W 130°08'1 0.3 1023.7 11.7
2017-Mar-27 06:00N 40°03' W 130°07'1 0.6 1021.8 11.8
2017-Mar-27 05:00N 40°04' W 130°07'2 1.5 1020.8 11.8
2017-Mar-27 04:00N 40°05' W 130°08'1 1.3 1019.8 11.8
2017-Mar-27 03:00N 40°06' W 130°09'1 0.8 1019.0 11.8
2017-Mar-27 02:00N 40°07' W 130°10'1 0.8 1018.3 11.8
2017-Mar-27 01:00N 40°07' W 130°10'2 1.5 1017.8 11.8
2017-Mar-27 00:00N 40°08' W 130°12'2 1.5 1017.4 11.8
2017-Mar-26 23:00N 40°08' W 130°14'0 0.0 1016.7 11.8
2017-Mar-26 22:00N 40°08' W 130°14'3 1.7 1016.2 11.8
2017-Mar-26 20:00N 40°07' W 130°18'0 0.0 1014.8 11.8
2017-Mar-26 19:00N 40°07' W 130°18'0 0.5 1014.3 11.8
2017-Mar-26 18:00N 40°07' W 130°19'0 0.0 1013.9 11.8
2017-Mar-26 17:00N 40°07' W 130°19'0 0.5 1013.2 11.8
2017-Mar-26 16:00N 40°07' W 130°18'1 0.8 1012.6 11.8
2017-Mar-26 15:00N 40°08' W 130°19'1 0.8 1012.3 11.8
2017-Mar-26 14:00N 40°08' W 130°19'1 1.2 1011.2 11.8
2017-Mar-26 13:00N 40°10' W 130°19'1 0.8 1010.7 11.8
2017-Mar-26 12:00N 40°10' W 130°20'5 5.1 1010.4 11.8
2017-Mar-26 11:00N 40°10' W 130°26'0 0.0 1010.1 11.8
2017-Mar-26 07:00N 40°10' W 130°26'2 1.5 1012.4 11.8
2017-Mar-26 06:00N 40°08' W 130°28'1 0.8 1013.3 11.8
2017-Mar-26 05:00N 40°08' W 130°28'1 1.3 1014.0 11.8
2017-Mar-26 04:00N 40°07' W 130°29'0 0.0 1014.6 11.8
2017-Mar-26 03:00N 40°07' W 130°29'2 1.5 1015.3 11.7
2017-Mar-26 02:00N 40°05' W 130°30'1 0.8 1015.8 11.7
2017-Mar-26 01:00N 40°05' W 130°31'1 0.6 1016.8 11.7
2017-Mar-26 00:00N 40°05' W 130°31'2 2.0 1017.8 11.8
2017-Mar-25 23:00N 40°04' W 130°32'1 0.6 1018.6 11.8
2017-Mar-25 22:00N 40°04' W 130°32'2 2.4 1019.3 11.8
2017-Mar-25 21:00N 40°02' W 130°32'0 0.0 1020.0 11.8
2017-Mar-25 20:00N 40°02' W 130°32'0 0.0 1020.5 11.8
2017-Mar-25 19:00N 40°02' W 130°32'1 0.8 1021.5 11.8
2017-Mar-25 18:00N 40°01' W 130°32'1 0.8 1021.8 11.8
2017-Mar-25 17:00N 40°01' W 130°31'0 0.0 1021.9 11.8
2017-Mar-25 15:00N 40°01' W 130°31'0 0.0 1022.2 11.8
2017-Mar-25 14:00N 40°01' W 130°31'1 0.6 1022.2 11.8
2017-Mar-25 13:00N 40°01' W 130°31'0 0.0 1022.0 11.8
2017-Mar-25 12:00N 40°01' W 130°31'1 0.9 1022.2 11.8
2017-Mar-25 11:00N 40°01' W 130°32'0 0.0 1022.4 11.8
2017-Mar-25 10:00N 40°01' W 130°32'1 0.4 1022.8 11.9
2017-Mar-25 07:00N 40°02' W 130°34'1 0.8 1023.0 11.9
2017-Mar-25 06:00N 40°01' W 130°34'1 0.6 1023.0 11.9
2017-Mar-25 05:00N 40°01' W 130°34'0 0.5 1022.5 11.9
2017-Mar-25 04:00N 40°01' W 130°34'1 0.9 1022.2 11.9
2017-Mar-25 03:00N 40°01' W 130°35'0 0.5 1021.4 11.9
2017-Mar-25 02:00N 40°01' W 130°35'0 0.5 1020.5 12.0
2017-Mar-25 01:00N 40°01' W 130°35'0 0.0 1020.1 12.0
2017-Mar-25 00:00N 40°01' W 130°35'1 0.9 1019.9 12.0
2017-Mar-24 23:00N 40°01' W 130°36'0 0.0 1019.3 12.0
2017-Mar-24 22:00N 40°01' W 130°36'1 0.8 1018.8 12.0
2017-Mar-24 21:00N 40°01' W 130°35'0 0.0 1018.6 11.9
2017-Mar-24 20:00N 40°01' W 130°35'1 0.8 1018.2 11.9
2017-Mar-24 19:00N 40°02' W 130°36'1 0.8 1017.7 11.8
2017-Mar-24 18:00N 40°02' W 130°35'0 0.5 1016.5 11.8
2017-Mar-24 17:00N 40°02' W 130°36'0 0.5 1015.3 11.8
2017-Mar-24 16:00N 40°02' W 130°35'1 1.4 1014.3 11.8
2017-Mar-24 15:00N 40°02' W 130°37'0 0.5 1013.4 11.8
2017-Mar-24 14:00N 40°02' W 130°38'0 0.0 1012.6 11.8
2017-Mar-24 13:00N 40°02' W 130°38'4 1.8 1012.0 11.8
2017-Mar-24 11:00N 40°01' W 130°42'0 0.0 1011.5 11.8
2017-Mar-24 07:00N 40°01' W 130°42'1 0.8 1010.7 11.8
2017-Mar-24 06:00N 40°00' W 130°43'1 1.3 1010.4 11.8
2017-Mar-24 05:00N 39°59' W 130°43'1 0.9 1010.2 11.8
2017-Mar-24 04:00N 39°59' W 130°44'2 1.5 1009.8 11.8
2017-Mar-24 03:00N 39°58' W 130°43'1 1.1 1009.6 11.8
2017-Mar-24 02:00N 39°58' W 130°44'0 0.5 1009.2 11.8
2017-Mar-24 01:00N 39°58' W 130°43'2 1.9 1009.4 11.8
2017-Mar-24 00:00N 39°57' W 130°46'0 0.0 1009.6 11.8
2017-Mar-23 23:00N 39°57' W 130°46'1 0.6 1009.8 11.8
2017-Mar-23 22:00N 39°58' W 130°46'0 0.0 1010.0 11.8
2017-Mar-23 21:00N 39°58' W 130°46'1 1.1 1010.2 11.8
2017-Mar-23 20:00N 39°57' W 130°47'1 0.9 1010.4 11.7
2017-Mar-23 19:00N 39°57' W 130°48'2 1.5 1009.8 11.7
2017-Mar-23 18:00N 39°56' W 130°49'1 0.8 1009.3 11.7
2017-Mar-23 17:00N 39°56' W 130°49'2 2.2 1009.2 11.7
2017-Mar-23 16:00N 39°55' W 130°51'1 0.6 1009.7 11.7
2017-Mar-23 15:00N 39°55' W 130°51'1 0.6 1010.2 11.7
2017-Mar-23 14:00N 39°54' W 130°51'7 2.2 1010.9 11.8
2017-Mar-23 11:00N 39°48' W 130°55'1 0.1 1013.6 11.9
2017-Mar-23 06:00N 39°47' W 130°55'1 1.2 1018.8 11.9
2017-Mar-23 05:00N 39°46' W 130°55'1 1.2 1019.2 11.8
2017-Mar-23 04:00N 39°45' W 130°55'0 0.0 1019.3 11.8
2017-Mar-23 03:00N 39°45' W 130°55'2 1.5 1019.8 11.8
2017-Mar-23 02:00N 39°44' W 130°56'1 0.6 1019.7 11.7
2017-Mar-23 01:00N 39°43' W 130°56'0 0.0 1019.8 11.7
2017-Mar-23 00:00N 39°43' W 130°56'0 0.0 1020.1 11.7
2017-Mar-22 23:00N 39°43' W 130°56'1 0.7 1020.5 11.7
2017-Mar-22 21:00N 39°43' W 130°58'2 1.5 1020.9 11.8
2017-Mar-22 20:00N 39°43' W 130°59'0 0.0 1020.9 11.7
2017-Mar-22 19:00N 39°43' W 130°59'0 0.5 1020.7 11.7
2017-Mar-22 18:00N 39°43' W 131°00'0 0.0 1020.5 12.0
2017-Mar-22 17:00N 39°43' W 131°00'1 0.9 1020.0 12.0
2017-Mar-22 16:00N 39°43' W 131°01'1 0.6 1019.5 11.9
2017-Mar-22 15:00N 39°42' W 131°01'0 0.0 1018.9 11.9
2017-Mar-22 14:00N 39°42' W 131°01'0 0.5 1018.3 11.9
2017-Mar-22 13:00N 39°42' W 131°01'1 0.8 1017.6 11.9
2017-Mar-22 12:00N 39°43' W 131°01'4 4.4 1016.9 12.0
2017-Mar-22 11:00N 39°46' W 131°05'1 0.1 1016.6 12.0
2017-Mar-22 06:00N 39°46' W 131°05'2 1.5 1014.0 11.5
2017-Mar-22 05:00N 39°47' W 131°07'1 0.6 1013.1 11.4
2017-Mar-22 04:00N 39°47' W 131°07'2 1.8 1012.1 11.4
2017-Mar-22 03:00N 39°47' W 131°10'0 0.0 1011.5 11.4
2017-Mar-22 02:00N 39°47' W 131°10'1 1.1 1010.6 11.5
2017-Mar-22 01:00N 39°48' W 131°11'0 0.0 1009.8 11.7
2017-Mar-22 00:00N 39°48' W 131°11'0 0.0 1009.3 11.7
2017-Mar-21 23:00N 39°48' W 131°11'1 1.1 1008.4 12.0
2017-Mar-21 22:00N 39°49' W 131°12'1 1.2 1007.7 11.7
2017-Mar-21 21:00N 39°50' W 131°12'1 1.4 1007.2 11.2
2017-Mar-21 20:00N 39°50' W 131°14'1 0.8 1006.4 11.2
2017-Mar-21 19:00N 39°50' W 131°14'1 0.6 1005.5 11.4
2017-Mar-21 18:00N 39°51' W 131°14'2 2.0 1004.4 11.5
2017-Mar-21 17:00N 39°53' W 131°16'0 0.0 1003.2 11.5
2017-Mar-21 16:00N 39°53' W 131°16'0 0.5 1001.8 11.5
2017-Mar-21 15:00N 39°53' W 131°16'1 0.6 1000.9 11.6
2017-Mar-21 14:00N 39°53' W 131°16'0 0.0 1000.2 11.7
2017-Mar-21 13:00N 39°53' W 131°16'4 3.9 999.7 11.7
2017-Mar-21 12:00N 39°52' W 131°21'0 0.0 999.5 11.5
2017-Mar-21 11:00N 39°52' W 131°21'0 0.0 999.8 11.1
2017-Mar-21 10:00N 39°52' W 131°21'0 0.0 1000.2 10.9
2017-Mar-21 07:00N 39°52' W 131°21'0 0.5 1001.0 10.9
2017-Mar-21 06:00N 39°52' W 131°20'1 0.9 1001.5 10.9
2017-Mar-21 05:00N 39°52' W 131°22'0 0.5 1001.4 10.9
2017-Mar-21 04:00N 39°52' W 131°22'1 0.8 1001.4 10.9
2017-Mar-21 03:00N 39°52' W 131°23'0 0.0 1001.1 11.0
2017-Mar-21 02:00N 39°52' W 131°23'0 0.0 1001.0 11.0
2017-Mar-21 01:00N 39°52' W 131°23'1 0.4 1000.7 11.0
2017-Mar-20 23:00N 39°51' W 131°23'0 0.0 1002.1 10.9
2017-Mar-20 22:00N 39°51' W 131°23'0 0.5 1002.3 10.9
2017-Mar-20 21:00N 39°51' W 131°24'0 0.2 1003.3 10.9
2017-Mar-20 19:00N 39°51' W 131°23'0 0.5 1004.6 10.8
2017-Mar-20 18:00N 39°51' W 131°24'1 1.1 1005.1 10.8
2017-Mar-20 17:00N 39°52' W 131°25'1 0.8 1005.2 10.8
2017-Mar-20 16:00N 39°51' W 131°26'0 0.0 1005.4 10.8
2017-Mar-20 15:00N 39°51' W 131°26'0 0.0 1005.1 10.8
2017-Mar-20 14:00N 39°51' W 131°26'0 0.0 1005.6 10.8
2017-Mar-20 13:00N 39°51' W 131°26'2 1.5 1005.8 10.8
2017-Mar-20 12:00N 39°50' W 131°28'0 0.0 1006.1 10.8
2017-Mar-20 11:00N 39°50' W 131°28'1 1.1 1007.2 10.8
2017-Mar-20 10:00N 39°50' W 131°26'0 0.0 1008.2 10.8
2017-Mar-20 07:00N 39°50' W 131°26'0 0.0 1011.0 10.8
2017-Mar-20 06:00N 39°50' W 131°26'1 0.8 1012.3 10.8
2017-Mar-20 05:00N 39°50' W 131°26'   1012.8 10.8
Track history (hours):
 
Tides and Currents Weather Stations Pressure Air Temp Water Temp Dewpoint Dewpoint Depression Visibility Wind Speed Wind Dir Waves Ship Positions

Drifting buoy 46770

Last reported at 2017-Mar-30 05:00 UTC. Time now 2017-Mar-30 06:50 UTC.
Position N 39°50' W 129°50'.

Barometer 1027.3 mb
Water temperature 11.7 ° C

Date/timePositionNaut miles runAvg speedWind from/ knotsBaromVisibWave heightAir tempDewpointWater temp
2017-Mar-30 05:00N 39°50' W 129°50'0 0.0 1027.3 11.7
2017-Mar-30 04:00N 39°50' W 129°50'0 0.0 1026.5 11.7
2017-Mar-30 03:00N 39°50' W 129°50'1 1.2 1025.6 11.8
2017-Mar-30 02:00N 39°52' W 129°50'1 1.2 1025.0 11.7
2017-Mar-30 01:00N 39°53' W 129°50'0 0.0 1024.6 11.8
2017-Mar-30 00:00N 39°53' W 129°50'1 0.6 1024.3 11.8
2017-Mar-29 23:00N 39°53' W 129°50'0 0.0 1024.4 11.8
2017-Mar-29 22:00N 39°53' W 129°50'2 2.4 1023.8 11.8
2017-Mar-29 21:00N 39°56' W 129°50'1 0.3 1024.0 11.8
2017-Mar-29 19:00N 39°55' W 129°50'1 1.1 1024.0 11.8
2017-Mar-29 18:00N 39°56' W 129°51'2 1.5 1023.7 11.8
2017-Mar-29 17:00N 39°57' W 129°52'0 0.0 1023.0 11.8
2017-Mar-29 16:00N 39°57' W 129°52'0 0.5 1023.0 11.8
2017-Mar-29 15:00N 39°57' W 129°53'1 0.9 1023.0 11.8
2017-Mar-29 14:00N 39°57' W 129°54'0 0.0 1022.6 11.8
2017-Mar-29 13:00N 39°57' W 129°54'1 0.8 1022.3 11.8
2017-Mar-29 12:00N 39°56' W 129°55'0 0.0 1022.5 11.8
2017-Mar-29 11:00N 39°56' W 129°55'0 0.0 1023.1 11.8
2017-Mar-29 10:00N 39°56' W 129°55'1 0.4 1023.4 11.8
2017-Mar-29 07:00N 39°56' W 129°56'1 0.8 1024.9 11.8
2017-Mar-29 06:00N 39°56' W 129°56'1 0.8 1025.2 11.8
2017-Mar-29 05:00N 39°56' W 129°57'0 0.0 1025.5 11.8
2017-Mar-29 04:00N 39°56' W 129°57'0 0.5 1025.5 11.8
2017-Mar-29 03:00N 39°56' W 129°58'1 0.9 1025.3 11.8
2017-Mar-29 02:00N 39°56' W 129°59'0 0.0 1025.4 11.8
2017-Mar-29 01:00N 39°56' W 129°59'0 0.0 1025.6 11.8
2017-Mar-29 00:00N 39°56' W 129°59'1 0.6 1025.9 11.8
2017-Mar-28 23:00N 39°55' W 129°59'0 0.0 1026.6 11.8
2017-Mar-28 22:00N 39°55' W 129°59'0 0.0 1027.2 11.8
2017-Mar-28 21:00N 39°55' W 129°59'0 0.0 1027.8 11.7
2017-Mar-28 19:00N 39°55' W 129°59'0 0.0 1028.4 11.6
2017-Mar-28 18:00N 39°55' W 129°59'0 0.5 1028.4 11.6
2017-Mar-28 17:00N 39°55' W 129°59'0 0.0 1028.5 11.5
2017-Mar-28 16:00N 39°55' W 129°59'0 0.5 1028.4 11.4
2017-Mar-28 15:00N 39°55' W 130°00'1 0.6 1028.2 11.4
2017-Mar-28 14:00N 39°56' W 130°00'1 0.6 1028.0 11.5
2017-Mar-28 13:00N 39°55' W 130°00'1 1.4 1028.4 11.5
2017-Mar-28 12:00N 39°55' W 130°02'0 0.0 1028.9 11.5
2017-Mar-28 11:00N 39°55' W 130°02'0 0.0 1029.5 11.5
2017-Mar-28 10:00N 39°55' W 130°02'1 0.3 1029.7 11.5
2017-Mar-28 06:00N 39°54' W 130°02'1 0.8 1030.7 11.5
2017-Mar-28 05:00N 39°53' W 130°02'0 0.0 1030.5 11.5
2017-Mar-28 04:00N 39°53' W 130°02'1 0.6 1030.0 11.5
2017-Mar-28 03:00N 39°54' W 130°02'1 0.6 1030.1 11.6
2017-Mar-28 02:00N 39°55' W 130°02'1 0.6 1030.3 11.6
2017-Mar-28 01:00N 39°55' W 130°02'0 0.0 1030.3 11.6
2017-Mar-28 00:00N 39°55' W 130°02'1 0.8 1030.1 11.6
2017-Mar-27 23:00N 39°56' W 130°02'0 0.0 1030.2 11.7
2017-Mar-27 22:00N 39°56' W 130°02'1 1.3 1030.0 11.6
2017-Mar-27 21:00N 39°57' W 130°03'0 0.0 1030.0 11.6
2017-Mar-27 20:00N 39°57' W 130°03'0 0.5 1029.6 11.6
2017-Mar-27 19:00N 39°57' W 130°02'1 0.8 1029.2 11.6
2017-Mar-27 18:00N 39°58' W 130°03'1 0.6 1028.2 11.6
2017-Mar-27 17:00N 39°58' W 130°03'1 0.8 1028.1 11.6
2017-Mar-27 16:00N 39°59' W 130°04'1 0.8 1027.5 11.5
2017-Mar-27 15:00N 39°59' W 130°04'1 1.1 1026.1 11.5
2017-Mar-27 14:00N 40°00' W 130°05'1 0.8 1025.3 11.6
2017-Mar-27 13:00N 40°01' W 130°06'2 1.8 1025.0 11.6
2017-Mar-27 12:00N 40°02' W 130°08'0 0.0 1024.5 11.6
2017-Mar-27 11:00N 40°02' W 130°08'0 0.0 1024.2 11.7
2017-Mar-27 10:00N 40°02' W 130°08'1 0.3 1023.7 11.7
2017-Mar-27 06:00N 40°03' W 130°07'1 0.6 1021.8 11.8
2017-Mar-27 05:00N 40°04' W 130°07'2 1.5 1020.8 11.8
2017-Mar-27 04:00N 40°05' W 130°08'1 1.3 1019.8 11.8
2017-Mar-27 03:00N 40°06' W 130°09'1 0.8 1019.0 11.8
2017-Mar-27 02:00N 40°07' W 130°10'1 0.8 1018.3 11.8
2017-Mar-27 01:00N 40°07' W 130°10'2 1.5 1017.8 11.8
2017-Mar-27 00:00N 40°08' W 130°12'2 1.5 1017.4 11.8
2017-Mar-26 23:00N 40°08' W 130°14'0 0.0 1016.7 11.8
2017-Mar-26 22:00N 40°08' W 130°14'3 1.7 1016.2 11.8
2017-Mar-26 20:00N 40°07' W 130°18'0 0.0 1014.8 11.8
2017-Mar-26 19:00N 40°07' W 130°18'0 0.5 1014.3 11.8
2017-Mar-26 18:00N 40°07' W 130°19'0 0.0 1013.9 11.8
2017-Mar-26 17:00N 40°07' W 130°19'0 0.5 1013.2 11.8
2017-Mar-26 16:00N 40°07' W 130°18'1 0.8 1012.6 11.8
2017-Mar-26 15:00N 40°08' W 130°19'1 0.8 1012.3 11.8
2017-Mar-26 14:00N 40°08' W 130°19'1 1.2 1011.2 11.8
2017-Mar-26 13:00N 40°10' W 130°19'1 0.8 1010.7 11.8
2017-Mar-26 12:00N 40°10' W 130°20'5 5.1 1010.4 11.8
2017-Mar-26 11:00N 40°10' W 130°26'0 0.0 1010.1 11.8
2017-Mar-26 07:00N 40°10' W 130°26'2 1.5 1012.4 11.8
2017-Mar-26 06:00N 40°08' W 130°28'1 0.8 1013.3 11.8
2017-Mar-26 05:00N 40°08' W 130°28'1 1.3 1014.0 11.8
2017-Mar-26 04:00N 40°07' W 130°29'0 0.0 1014.6 11.8
2017-Mar-26 03:00N 40°07' W 130°29'2 1.5 1015.3 11.7
2017-Mar-26 02:00N 40°05' W 130°30'1 0.8 1015.8 11.7
2017-Mar-26 01:00N 40°05' W 130°31'1 0.6 1016.8 11.7
2017-Mar-26 00:00N 40°05' W 130°31'2 2.0 1017.8 11.8
2017-Mar-25 23:00N 40°04' W 130°32'1 0.6 1018.6 11.8
2017-Mar-25 22:00N 40°04' W 130°32'2 2.4 1019.3 11.8
2017-Mar-25 21:00N 40°02' W 130°32'0 0.0 1020.0 11.8
2017-Mar-25 20:00N 40°02' W 130°32'0 0.0 1020.5 11.8
2017-Mar-25 19:00N 40°02' W 130°32'1 0.8 1021.5 11.8
2017-Mar-25 18:00N 40°01' W 130°32'1 0.8 1021.8 11.8
2017-Mar-25 17:00N 40°01' W 130°31'0 0.0 1021.9 11.8
2017-Mar-25 15:00N 40°01' W 130°31'0 0.0 1022.2 11.8
2017-Mar-25 14:00N 40°01' W 130°31'1 0.6 1022.2 11.8
2017-Mar-25 13:00N 40°01' W 130°31'0 0.0 1022.0 11.8
2017-Mar-25 12:00N 40°01' W 130°31'1 0.9 1022.2 11.8
2017-Mar-25 11:00N 40°01' W 130°32'0 0.0 1022.4 11.8
2017-Mar-25 10:00N 40°01' W 130°32'1 0.4 1022.8 11.9
2017-Mar-25 07:00N 40°02' W 130°34'1 0.8 1023.0 11.9
2017-Mar-25 06:00N 40°01' W 130°34'1 0.6 1023.0 11.9
2017-Mar-25 05:00N 40°01' W 130°34'0 0.5 1022.5 11.9
2017-Mar-25 04:00N 40°01' W 130°34'1 0.9 1022.2 11.9
2017-Mar-25 03:00N 40°01' W 130°35'0 0.5 1021.4 11.9
2017-Mar-25 02:00N 40°01' W 130°35'0 0.5 1020.5 12.0
2017-Mar-25 01:00N 40°01' W 130°35'0 0.0 1020.1 12.0
2017-Mar-25 00:00N 40°01' W 130°35'1 0.9 1019.9 12.0
2017-Mar-24 23:00N 40°01' W 130°36'0 0.0 1019.3 12.0
2017-Mar-24 22:00N 40°01' W 130°36'1 0.8 1018.8 12.0
2017-Mar-24 21:00N 40°01' W 130°35'0 0.0 1018.6 11.9
2017-Mar-24 20:00N 40°01' W 130°35'1 0.8 1018.2 11.9
2017-Mar-24 19:00N 40°02' W 130°36'1 0.8 1017.7 11.8
2017-Mar-24 18:00N 40°02' W 130°35'0 0.5 1016.5 11.8
2017-Mar-24 17:00N 40°02' W 130°36'0 0.5 1015.3 11.8
2017-Mar-24 16:00N 40°02' W 130°35'1 1.4 1014.3 11.8
2017-Mar-24 15:00N 40°02' W 130°37'0 0.5 1013.4 11.8
2017-Mar-24 14:00N 40°02' W 130°38'0 0.0 1012.6 11.8
2017-Mar-24 13:00N 40°02' W 130°38'4 1.8 1012.0 11.8
2017-Mar-24 11:00N 40°01' W 130°42'0 0.0 1011.5 11.8
2017-Mar-24 07:00N 40°01' W 130°42'1 0.8 1010.7 11.8
2017-Mar-24 06:00N 40°00' W 130°43'1 1.3 1010.4 11.8
2017-Mar-24 05:00N 39°59' W 130°43'1 0.9 1010.2 11.8
2017-Mar-24 04:00N 39°59' W 130°44'2 1.5 1009.8 11.8
2017-Mar-24 03:00N 39°58' W 130°43'1 1.1 1009.6 11.8
2017-Mar-24 02:00N 39°58' W 130°44'0 0.5 1009.2 11.8
2017-Mar-24 01:00N 39°58' W 130°43'2 1.9 1009.4 11.8
2017-Mar-24 00:00N 39°57' W 130°46'0 0.0 1009.6 11.8
2017-Mar-23 23:00N 39°57' W 130°46'1 0.6 1009.8 11.8
2017-Mar-23 22:00N 39°58' W 130°46'0 0.0 1010.0 11.8
2017-Mar-23 21:00N 39°58' W 130°46'1 1.1 1010.2 11.8
2017-Mar-23 20:00N 39°57' W 130°47'1 0.9 1010.4 11.7
2017-Mar-23 19:00N 39°57' W 130°48'2 1.5 1009.8 11.7
2017-Mar-23 18:00N 39°56' W 130°49'1 0.8 1009.3 11.7
2017-Mar-23 17:00N 39°56' W 130°49'2 2.2 1009.2 11.7
2017-Mar-23 16:00N 39°55' W 130°51'1 0.6 1009.7 11.7
2017-Mar-23 15:00N 39°55' W 130°51'1 0.6 1010.2 11.7
2017-Mar-23 14:00N 39°54' W 130°51'7 2.2 1010.9 11.8
2017-Mar-23 11:00N 39°48' W 130°55'1 0.1 1013.6 11.9
2017-Mar-23 06:00N 39°47' W 130°55'1 1.2 1018.8 11.9
2017-Mar-23 05:00N 39°46' W 130°55'1 1.2 1019.2 11.8
2017-Mar-23 04:00N 39°45' W 130°55'0 0.0 1019.3 11.8
2017-Mar-23 03:00N 39°45' W 130°55'2 1.5 1019.8 11.8
2017-Mar-23 02:00N 39°44' W 130°56'1 0.6 1019.7 11.7
2017-Mar-23 01:00N 39°43' W 130°56'0 0.0 1019.8 11.7
2017-Mar-23 00:00N 39°43' W 130°56'0 0.0 1020.1 11.7
2017-Mar-22 23:00N 39°43' W 130°56'1 0.7 1020.5 11.7
2017-Mar-22 21:00N 39°43' W 130°58'2 1.5 1020.9 11.8
2017-Mar-22 20:00N 39°43' W 130°59'0 0.0 1020.9 11.7
2017-Mar-22 19:00N 39°43' W 130°59'0 0.5 1020.7 11.7
2017-Mar-22 18:00N 39°43' W 131°00'0 0.0 1020.5 12.0
2017-Mar-22 17:00N 39°43' W 131°00'1 0.9 1020.0 12.0
2017-Mar-22 16:00N 39°43' W 131°01'1 0.6 1019.5 11.9
2017-Mar-22 15:00N 39°42' W 131°01'0 0.0 1018.9 11.9
2017-Mar-22 14:00N 39°42' W 131°01'0 0.5 1018.3 11.9
2017-Mar-22 13:00N 39°42' W 131°01'1 0.8 1017.6 11.9
2017-Mar-22 12:00N 39°43' W 131°01'4 4.4 1016.9 12.0
2017-Mar-22 11:00N 39°46' W 131°05'1 0.1 1016.6 12.0
2017-Mar-22 06:00N 39°46' W 131°05'2 1.5 1014.0 11.5
2017-Mar-22 05:00N 39°47' W 131°07'1 0.6 1013.1 11.4
2017-Mar-22 04:00N 39°47' W 131°07'2 1.8 1012.1 11.4
2017-Mar-22 03:00N 39°47' W 131°10'0 0.0 1011.5 11.4
2017-Mar-22 02:00N 39°47' W 131°10'1 1.1 1010.6 11.5
2017-Mar-22 01:00N 39°48' W 131°11'0 0.0 1009.8 11.7
2017-Mar-22 00:00N 39°48' W 131°11'0 0.0 1009.3 11.7
2017-Mar-21 23:00N 39°48' W 131°11'1 1.1 1008.4 12.0
2017-Mar-21 22:00N 39°49' W 131°12'1 1.2 1007.7 11.7
2017-Mar-21 21:00N 39°50' W 131°12'1 1.4 1007.2 11.2
2017-Mar-21 20:00N 39°50' W 131°14'1 0.8 1006.4 11.2
2017-Mar-21 19:00N 39°50' W 131°14'1 0.6 1005.5 11.4
2017-Mar-21 18:00N 39°51' W 131°14'2 2.0 1004.4 11.5
2017-Mar-21 17:00N 39°53' W 131°16'0 0.0 1003.2 11.5
2017-Mar-21 16:00N 39°53' W 131°16'0 0.5 1001.8 11.5
2017-Mar-21 15:00N 39°53' W 131°16'1 0.6 1000.9 11.6
2017-Mar-21 14:00N 39°53' W 131°16'0 0.0 1000.2 11.7
2017-Mar-21 13:00N 39°53' W 131°16'4 3.9 999.7 11.7
2017-Mar-21 12:00N 39°52' W 131°21'0 0.0 999.5 11.5
2017-Mar-21 11:00N 39°52' W 131°21'0 0.0 999.8 11.1
2017-Mar-21 10:00N 39°52' W 131°21'0 0.0 1000.2 10.9
2017-Mar-21 07:00N 39°52' W 131°21'0 0.5 1001.0 10.9
2017-Mar-21 06:00N 39°52' W 131°20'1 0.9 1001.5 10.9
2017-Mar-21 05:00N 39°52' W 131°22'0 0.5 1001.4 10.9
2017-Mar-21 04:00N 39°52' W 131°22'1 0.8 1001.4 10.9
2017-Mar-21 03:00N 39°52' W 131°23'0 0.0 1001.1 11.0
2017-Mar-21 02:00N 39°52' W 131°23'0 0.0 1001.0 11.0
2017-Mar-21 01:00N 39°52' W 131°23'1 0.4 1000.7 11.0
2017-Mar-20 23:00N 39°51' W 131°23'0 0.0 1002.1 10.9
2017-Mar-20 22:00N 39°51' W 131°23'0 0.5 1002.3 10.9
2017-Mar-20 21:00N 39°51' W 131°24'0 0.2 1003.3 10.9
2017-Mar-20 19:00N 39°51' W 131°23'0 0.5 1004.6 10.8
2017-Mar-20 18:00N 39°51' W 131°24'1 1.1 1005.1 10.8
2017-Mar-20 17:00N 39°52' W 131°25'1 0.8 1005.2 10.8
2017-Mar-20 16:00N 39°51' W 131°26'0 0.0 1005.4 10.8
2017-Mar-20 15:00N 39°51' W 131°26'0 0.0 1005.1 10.8
2017-Mar-20 14:00N 39°51' W 131°26'0 0.0 1005.6 10.8
2017-Mar-20 13:00N 39°51' W 131°26'2 1.5 1005.8 10.8
2017-Mar-20 12:00N 39°50' W 131°28'0 0.0 1006.1 10.8
2017-Mar-20 11:00N 39°50' W 131°28'1 1.1 1007.2 10.8
2017-Mar-20 10:00N 39°50' W 131°26'0 0.0 1008.2 10.8
2017-Mar-20 07:00N 39°50' W 131°26'0 0.0 1011.0 10.8
2017-Mar-20 06:00N 39°50' W 131°26'1 0.8 1012.3 10.8
2017-Mar-20 05:00N 39°50' W 131°26'   1012.8 10.8

Dump ship's entire track history